Sand Springs, Montana
Current Conditions -  °F | °C
As of 9:15 AM on Wednesday 22 Oct 2014 (Local Time) from KMVH Reporting Station
Clear Clear  
Wind Chill: 44°   Ceiling: Unl
Heat Index: 46°   Visibility: 10mi
Dew Point: 27°   Wind: 6mph
Humidity: 46%   Direction: 260°W
Pressure: 29.98"   Gusts: NA
Location:  47.1°N, 107.49°W
Report Text: KMVH 221515Z AUTO 26005KT 10SM CLR 08/M03 A2998 RMK A01
Loading
Personal Weather Stations






























Interactive Weather Map New forecast layout! Learn more

10-Day Weather Forecast

Advertisements
Track Severe Weather on mobile